createdAt,value
2022-08-28T00:05:40.122Z,13.3
2022-08-28T00:08:10.152Z,13.3
2022-08-28T00:10:40.194Z,13.3
2022-08-28T00:13:10.209Z,13.3
2022-08-28T00:15:40.206Z,13.2
2022-08-28T00:18:10.243Z,13.2
2022-08-28T00:20:40.261Z,13.1
2022-08-28T00:23:10.307Z,13.2
2022-08-28T00:30:40.347Z,13.1
2022-08-28T00:33:10.657Z,13.1
2022-08-28T00:35:40.394Z,13.2
2022-08-28T00:38:10.457Z,13
2022-08-28T00:43:10.526Z,13
2022-08-28T00:45:40.496Z,13
2022-08-28T00:48:10.531Z,13
2022-08-28T00:50:40.535Z,12.9
2022-08-28T00:53:10.557Z,13
2022-08-28T00:55:40.586Z,13
2022-08-28T00:58:10.692Z,13
2022-08-28T01:00:40.635Z,13
2022-08-28T01:03:10.748Z,13
2022-08-28T01:08:10.739Z,12.9
2022-08-28T01:10:40.757Z,12.9
2022-08-28T01:13:10.765Z,12.8
2022-08-28T01:15:40.835Z,12.8
2022-08-28T01:20:40.823Z,12.7
2022-08-28T01:25:40.894Z,12.6
2022-08-28T01:28:11.039Z,12.6
2022-08-28T01:30:40.919Z,12.7
2022-08-28T01:35:40.966Z,12.7
2022-08-28T01:38:11.062Z,12.7
2022-08-28T01:40:41.138Z,12.7
2022-08-28T01:43:11.050Z,12.7
2022-08-28T01:45:41.070Z,12.7
2022-08-28T01:48:11.327Z,12.7
2022-08-28T01:50:41.110Z,12.7
2022-08-28T01:53:12.438Z,12.6
2022-08-28T02:00:41.206Z,12.6
2022-08-28T02:03:11.637Z,12.5
2022-08-28T02:05:41.630Z,12.5
2022-08-28T02:08:11.291Z,12.5
2022-08-28T02:10:41.299Z,12.4
2022-08-28T02:13:11.331Z,12.4
2022-08-28T02:15:41.415Z,12.4
2022-08-28T02:18:11.732Z,12.4
2022-08-28T02:20:41.422Z,12.3
2022-08-28T02:30:41.573Z,12.2
2022-08-28T02:33:11.518Z,12.2
2022-08-28T02:35:41.523Z,12.1
2022-08-28T02:38:11.804Z,12.1
2022-08-28T02:40:41.741Z,12.1
2022-08-28T02:43:11.615Z,12.2
2022-08-28T02:45:41.633Z,12.2
2022-08-28T02:48:15.973Z,12.2
2022-08-28T02:53:11.711Z,12.1
2022-08-28T02:55:41.727Z,12.2
2022-08-28T02:58:11.897Z,12.1
2022-08-28T03:00:41.800Z,12.1
2022-08-28T03:03:11.818Z,12.1
2022-08-28T03:05:41.845Z,12.1
2022-08-28T03:08:12.034Z,12.1
2022-08-28T03:13:11.881Z,12.1
2022-08-28T03:15:41.904Z,12
2022-08-28T03:18:12.266Z,12.1
2022-08-28T03:20:41.974Z,12
2022-08-28T03:23:11.979Z,12
2022-08-28T03:25:42.016Z,12
2022-08-28T03:28:12.312Z,12
2022-08-28T03:30:42.169Z,12
2022-08-28T03:33:12.072Z,12
2022-08-28T03:35:42.101Z,12
2022-08-28T03:38:12.276Z,11.9
2022-08-28T03:40:42.158Z,11.9
2022-08-28T03:43:12.197Z,11.9
2022-08-28T03:45:42.254Z,11.9
2022-08-28T03:48:12.358Z,11.9
2022-08-28T03:50:42.235Z,11.9
2022-08-28T03:53:12.259Z,12
2022-08-28T03:55:42.298Z,12
2022-08-28T03:58:18.908Z,11.9
2022-08-28T04:05:42.377Z,12
2022-08-28T04:10:42.433Z,12
2022-08-28T04:13:12.444Z,12
2022-08-28T04:15:42.529Z,12
2022-08-28T04:18:12.733Z,12
2022-08-28T04:20:42.531Z,11.9
2022-08-28T04:25:42.573Z,11.9
2022-08-28T04:28:12.744Z,11.9
2022-08-28T04:30:42.620Z,11.9
2022-08-28T04:33:12.660Z,11.9
2022-08-28T04:35:42.668Z,11.9
2022-08-28T04:38:12.709Z,11.9
2022-08-28T04:43:12.740Z,11.9
2022-08-28T04:45:42.833Z,11.9
2022-08-28T04:48:13.518Z,11.9
2022-08-28T04:53:12.844Z,11.9
2022-08-28T04:58:12.965Z,12
2022-08-28T05:00:42.940Z,11.9
2022-08-28T05:03:12.914Z,12
2022-08-28T05:05:42.949Z,12
2022-08-28T05:08:13.099Z,12
2022-08-28T05:15:43.038Z,12
2022-08-28T05:18:13.242Z,12
2022-08-28T05:20:43.089Z,12.1
2022-08-28T05:25:43.124Z,12.1
2022-08-28T05:28:13.467Z,12.2
2022-08-28T05:30:43.280Z,12.2
2022-08-28T05:35:43.227Z,12.4
2022-08-28T05:38:13.374Z,12.5
2022-08-28T05:40:43.270Z,12.5
2022-08-28T05:43:13.295Z,12.5
2022-08-28T05:50:47.466Z,12.7
2022-08-28T05:53:13.377Z,12.8
2022-08-28T05:55:43.408Z,12.8
2022-08-28T05:58:13.669Z,12.9
2022-08-28T06:03:13.480Z,13.1
2022-08-28T06:05:43.495Z,13.2
2022-08-28T06:08:13.805Z,13.2
2022-08-28T06:10:43.553Z,13.3
2022-08-28T06:15:43.902Z,13.5
2022-08-28T06:18:13.780Z,13.8
2022-08-28T06:20:43.658Z,14
2022-08-28T06:23:13.669Z,14.3
2022-08-28T06:28:13.918Z,14.6
2022-08-28T06:31:08.859Z,14.8
2022-08-28T06:35:43.774Z,14.8
2022-08-28T06:40:43.837Z,14.8
2022-08-28T06:43:13.849Z,14.8
2022-08-28T06:45:43.939Z,14.8
2022-08-28T06:50:43.918Z,14.9
2022-08-28T06:53:13.962Z,14.9
2022-08-28T06:55:43.975Z,15
2022-08-28T06:58:14.084Z,15
2022-08-28T07:00:44.011Z,15.1
2022-08-28T07:03:14.058Z,15.2
2022-08-28T07:05:44.071Z,15.3
2022-08-28T07:10:44.115Z,15.4
2022-08-28T07:13:14.116Z,15.5
2022-08-28T07:15:44.187Z,15.6
2022-08-28T07:20:44.199Z,15.8
2022-08-28T07:23:14.214Z,15.8
2022-08-28T07:25:44.505Z,15.9
2022-08-28T07:28:14.514Z,16
2022-08-28T07:30:44.400Z,16.1
2022-08-28T07:33:14.332Z,16.2
2022-08-28T07:35:44.350Z,16.2
2022-08-28T07:38:14.557Z,16.29
2022-08-28T07:40:44.403Z,16.29
2022-08-28T07:43:14.420Z,16.29
2022-08-28T07:45:44.598Z,16.4
2022-08-28T07:48:14.634Z,16.4
2022-08-28T07:50:44.484Z,16.4
2022-08-28T07:53:14.507Z,16.6
2022-08-28T07:55:44.542Z,16.7
2022-08-28T07:58:14.679Z,16.79
2022-08-28T08:00:44.595Z,17
2022-08-28T08:03:14.650Z,16.9
2022-08-28T08:05:44.632Z,17.1
2022-08-28T08:08:14.857Z,17.1
2022-08-28T08:10:44.678Z,17.4
2022-08-28T08:13:14.703Z,17.4
2022-08-28T08:15:44.809Z,17.4
2022-08-28T08:18:14.878Z,17.4
2022-08-28T08:20:44.762Z,17.4
2022-08-28T08:25:44.803Z,17.5
2022-08-28T08:28:15.013Z,17.6
2022-08-28T08:30:44.879Z,17.79
2022-08-28T08:33:14.870Z,18
2022-08-28T08:35:44.910Z,18.2
2022-08-28T08:38:15.140Z,18.29
2022-08-28T08:43:14.983Z,18.5
2022-08-28T08:45:44.995Z,18.7
2022-08-28T08:48:15.213Z,18.6
2022-08-28T08:50:45.052Z,18.5
2022-08-28T08:53:15.082Z,18.5
2022-08-28T08:55:45.117Z,18.6
2022-08-28T08:58:15.355Z,18.7
2022-08-28T09:00:45.130Z,18.9
2022-08-28T09:03:15.484Z,19
2022-08-28T09:05:45.190Z,18.9
2022-08-28T09:10:45.241Z,18.79
2022-08-28T09:13:15.275Z,18.6
2022-08-28T09:18:15.479Z,18.4
2022-08-28T09:20:45.491Z,18.4
2022-08-28T09:23:15.341Z,18.29
2022-08-28T09:25:45.368Z,18.29
2022-08-28T09:28:15.393Z,18.4
2022-08-28T09:30:45.485Z,18.6
2022-08-28T09:33:15.453Z,18.7
2022-08-28T09:35:45.464Z,19.1
2022-08-28T09:38:16.188Z,19.2
2022-08-28T09:40:45.515Z,19.4
2022-08-28T09:43:15.676Z,19.4
2022-08-28T09:45:45.556Z,19.5
2022-08-28T09:48:15.591Z,19.4
2022-08-28T09:50:45.621Z,19.4
2022-08-28T09:53:15.637Z,19.7
2022-08-28T09:55:45.664Z,20
2022-08-28T09:58:15.837Z,19.9
2022-08-28T10:00:45.686Z,20
2022-08-28T10:03:15.733Z,19.9
2022-08-28T10:05:45.752Z,20.1
2022-08-28T10:08:15.773Z,20.5
2022-08-28T10:10:45.783Z,20.7
2022-08-28T10:13:15.830Z,20.5
2022-08-28T10:15:45.860Z,20.2
2022-08-28T10:18:15.904Z,19.9
2022-08-28T10:20:46.508Z,19.79
2022-08-28T10:23:17.683Z,20
2022-08-28T10:25:45.939Z,20.29
2022-08-28T10:28:15.960Z,20.5
2022-08-28T10:30:46.046Z,20.8
2022-08-28T10:33:16.013Z,20.7
2022-08-28T10:35:46.038Z,20.29
2022-08-28T10:38:16.190Z,20.2
2022-08-28T10:43:16.102Z,20.29
2022-08-28T10:45:46.167Z,20.2
2022-08-28T10:48:16.145Z,20.4
2022-08-28T10:50:46.178Z,20.7
2022-08-28T10:53:16.192Z,21.1
2022-08-28T10:55:46.209Z,21.4
2022-08-28T10:58:23.874Z,21.4
2022-08-28T11:00:46.272Z,21.3
2022-08-28T11:03:33.498Z,21
2022-08-28T11:05:53.471Z,20.7
2022-08-28T11:08:16.371Z,20.6
2022-08-28T11:10:46.366Z,20.8
2022-08-28T11:13:16.396Z,21.2
2022-08-28T11:15:46.415Z,21.5
2022-08-28T11:18:16.452Z,21.4
2022-08-28T11:20:46.461Z,21.6
2022-08-28T11:23:17.209Z,21.7
2022-08-28T11:25:46.495Z,21.7
2022-08-28T11:28:16.501Z,21.5
2022-08-28T11:33:16.556Z,21.8
2022-08-28T11:38:19.991Z,21.9
2022-08-28T11:40:46.636Z,21.9
2022-08-28T11:43:17.044Z,21.7
2022-08-28T11:45:47.559Z,21.7
2022-08-28T11:48:16.716Z,21.6
2022-08-28T11:53:16.759Z,21.5
2022-08-28T11:55:46.786Z,21.7
2022-08-28T11:58:16.847Z,21.8
2022-08-28T12:00:46.830Z,22.1
2022-08-28T12:03:16.861Z,21.9
2022-08-28T12:05:46.871Z,21.6
2022-08-28T12:10:46.927Z,22.2
2022-08-28T12:13:16.959Z,22.5
2022-08-28T12:15:47.020Z,22.5
2022-08-28T12:18:16.978Z,22.1
2022-08-28T12:25:47.059Z,21.7
2022-08-28T12:28:17.083Z,21.5
2022-08-28T12:30:47.196Z,21.4
2022-08-28T12:33:17.148Z,21.3
2022-08-28T12:35:47.211Z,21.6
2022-08-28T12:38:17.170Z,22.1
2022-08-28T12:45:47.357Z,23.5
2022-08-28T12:53:17.355Z,22.2
2022-08-28T12:58:17.392Z,22.5
2022-08-28T13:05:47.445Z,23.5
2022-08-28T13:08:17.461Z,23
2022-08-28T13:10:47.507Z,22.7
2022-08-28T13:15:47.915Z,23
2022-08-28T13:20:47.572Z,23
2022-08-28T13:23:17.592Z,22.9
2022-08-28T13:25:47.616Z,22.9
2022-08-28T13:28:17.675Z,23
2022-08-28T13:30:47.758Z,22.9
2022-08-28T13:40:58.541Z,22.7
2022-08-28T13:43:17.783Z,22.9
2022-08-28T13:45:47.835Z,23
2022-08-28T13:48:18.222Z,23.2
2022-08-28T13:50:47.858Z,23.5
2022-08-28T13:53:17.876Z,24
2022-08-28T13:55:47.894Z,24.1
2022-08-28T14:00:48.041Z,24.1
2022-08-28T14:03:17.982Z,24.7
2022-08-28T14:08:18.026Z,26.4
2022-08-28T14:10:48.044Z,26.6
2022-08-28T14:13:18.081Z,26.3
2022-08-28T14:15:48.106Z,26.1
2022-08-28T14:18:18.129Z,25.5
2022-08-28T14:20:48.127Z,24.9
2022-08-28T14:23:18.179Z,24.5
2022-08-28T14:25:48.179Z,24.3
2022-08-28T14:33:18.250Z,26.5
2022-08-28T14:35:48.286Z,27.8
2022-08-28T14:38:18.417Z,28.7
2022-08-28T14:40:48.341Z,28.3
2022-08-28T14:43:18.338Z,26
2022-08-28T14:45:48.467Z,25.2
2022-08-28T14:48:18.418Z,24.9
2022-08-28T14:53:18.459Z,24.5
2022-08-28T14:58:18.503Z,24.8
2022-08-28T15:03:18.635Z,24
2022-08-28T15:05:48.564Z,23.5
2022-08-28T15:08:18.625Z,23.2
2022-08-28T15:10:48.642Z,23.1
2022-08-28T15:13:18.640Z,23.3
2022-08-28T15:15:48.651Z,25.8
2022-08-28T15:18:18.694Z,28.7
2022-08-28T15:20:48.707Z,31.8
2022-08-28T15:25:48.843Z,32.7
2022-08-28T15:28:18.780Z,28
2022-08-28T15:30:48.811Z,25.8
2022-08-28T15:33:18.820Z,24.7
2022-08-28T15:35:48.856Z,24.9
2022-08-28T15:38:18.879Z,24
2022-08-28T15:40:48.920Z,23.3
2022-08-28T15:43:18.937Z,22.8
2022-08-28T15:48:18.979Z,30.3
2022-08-28T15:53:19.016Z,33.8
2022-08-28T15:55:49.040Z,35
2022-08-28T15:58:19.081Z,34.59
2022-08-28T16:03:19.119Z,35.3
2022-08-28T16:05:49.128Z,33.59
2022-08-28T16:08:19.181Z,28.2
2022-08-28T16:10:49.193Z,25.8
2022-08-28T16:15:49.253Z,23.8
2022-08-28T16:18:19.275Z,23.3
2022-08-28T16:20:49.296Z,23
2022-08-28T16:23:19.345Z,22.8
2022-08-28T16:25:49.353Z,22.6
2022-08-28T16:28:19.395Z,22.4
2022-08-28T16:30:49.399Z,22.3
2022-08-28T16:33:19.446Z,27.2
2022-08-28T16:35:54.955Z,31.1
2022-08-28T16:38:19.456Z,32.8
2022-08-28T16:43:20.021Z,33.5
2022-08-28T16:48:19.553Z,32.3
2022-08-28T16:50:49.590Z,31.7
2022-08-28T16:55:49.629Z,30.8
2022-08-28T16:58:19.755Z,28.8
2022-08-28T17:00:52.783Z,27.2
2022-08-28T17:03:23.132Z,29.3
2022-08-28T17:05:49.735Z,29.8
2022-08-28T17:08:19.752Z,27.5
2022-08-28T17:10:49.786Z,24.8
2022-08-28T17:13:19.801Z,23.5
2022-08-28T17:15:49.889Z,23.1
2022-08-28T17:18:19.857Z,22.7
2022-08-28T17:20:49.917Z,22.4
2022-08-28T17:23:20.250Z,22.1
2022-08-28T17:25:49.919Z,22
2022-08-28T17:28:19.939Z,21.9
2022-08-28T17:30:50.009Z,21.8
2022-08-28T17:33:19.997Z,21.7
2022-08-28T17:35:50.339Z,21.4
2022-08-28T17:38:20.054Z,21.4
2022-08-28T17:40:50.077Z,21.3
2022-08-28T17:45:50.109Z,21.1
2022-08-28T17:48:20.145Z,21
2022-08-28T17:50:50.192Z,20.9
2022-08-28T17:53:21.803Z,20.9
2022-08-28T17:58:20.249Z,20.6
2022-08-28T18:00:50.260Z,20.5
2022-08-28T18:03:20.280Z,20.5
2022-08-28T18:05:50.319Z,20.4
2022-08-28T18:08:20.443Z,20.29
2022-08-28T18:10:50.359Z,20.2
2022-08-28T18:13:20.390Z,20.2
2022-08-28T18:15:54.462Z,20
2022-08-28T18:20:50.451Z,19.79
2022-08-28T18:23:20.472Z,19.7
2022-08-28T18:25:51.139Z,19.6
2022-08-28T18:28:22.364Z,19.5
2022-08-28T18:30:50.601Z,19.29
2022-08-28T18:33:20.579Z,19.29
2022-08-28T18:35:50.591Z,19.2
2022-08-28T18:38:20.629Z,19.1
2022-08-28T18:40:50.644Z,18.9
2022-08-28T18:45:50.697Z,18.7
2022-08-28T18:48:20.737Z,18.7
2022-08-28T18:50:50.726Z,18.7
2022-08-28T18:53:20.758Z,18.6
2022-08-28T18:58:20.991Z,18.4
2022-08-28T19:00:50.845Z,18.29
2022-08-28T19:03:20.846Z,18.2
2022-08-28T19:05:50.880Z,18.1
2022-08-28T19:08:20.917Z,18
2022-08-28T19:10:50.925Z,18
2022-08-28T19:13:21.003Z,18
2022-08-28T19:15:51.055Z,17.9
2022-08-28T19:25:51.081Z,17.7
2022-08-28T19:28:21.104Z,17.7
2022-08-28T19:33:21.147Z,17.6
2022-08-28T19:35:51.174Z,17.5
2022-08-28T19:38:21.217Z,17.4
2022-08-28T19:43:21.245Z,17.29
2022-08-28T19:53:21.337Z,17.1
2022-08-28T19:55:51.369Z,17
2022-08-28T20:00:51.413Z,17
2022-08-28T20:03:21.787Z,16.79
2022-08-28T20:05:51.451Z,16.79
2022-08-28T20:10:51.491Z,16.7
2022-08-28T20:13:21.524Z,16.7
2022-08-28T20:15:51.615Z,16.7
2022-08-28T20:23:21.619Z,16.6
2022-08-28T20:25:51.643Z,16.5
2022-08-28T20:28:21.773Z,16.4
2022-08-28T20:30:51.749Z,16.4
2022-08-28T20:35:51.740Z,16.29
2022-08-28T20:38:21.763Z,16.29
2022-08-28T20:43:21.810Z,16.2
2022-08-28T20:45:51.857Z,16.1
2022-08-28T20:48:21.860Z,16.1
2022-08-28T20:50:51.875Z,16.1
2022-08-28T20:53:31.262Z,16.1
2022-08-28T20:55:51.948Z,16.1
2022-08-28T20:58:21.940Z,16.1
2022-08-28T21:00:53.442Z,16
2022-08-28T21:03:21.995Z,16.1
2022-08-28T21:05:52.020Z,16
2022-08-28T21:08:22.063Z,15.9
2022-08-28T21:10:52.068Z,15.9
2022-08-28T21:13:22.092Z,15.8
2022-08-28T21:15:52.110Z,15.7
2022-08-28T21:18:22.125Z,15.6
2022-08-28T21:20:52.185Z,15.5
2022-08-28T21:23:22.192Z,15.6
2022-08-28T21:25:52.215Z,15.5
2022-08-28T21:28:22.238Z,15.5
2022-08-28T21:30:52.319Z,15.5
2022-08-28T21:33:22.420Z,15.4
2022-08-28T21:35:52.308Z,15.3
2022-08-28T21:38:22.332Z,15.2
2022-08-28T21:40:52.347Z,15.2
2022-08-28T21:43:22.357Z,15.1
2022-08-28T21:45:52.498Z,15.1
2022-08-28T21:48:24.389Z,15.1
2022-08-28T21:50:52.527Z,15.1
2022-08-28T21:53:22.474Z,15.2
2022-08-28T21:55:52.485Z,15.2
2022-08-28T21:58:22.523Z,15.1
2022-08-28T22:00:52.574Z,15.1
2022-08-28T22:05:52.581Z,15
2022-08-28T22:08:22.594Z,14.9
2022-08-28T22:10:52.985Z,14.9
2022-08-28T22:13:22.639Z,14.7
2022-08-28T22:15:52.671Z,14.7
2022-08-28T22:18:22.697Z,14.7
2022-08-28T22:20:52.738Z,14.7
2022-08-28T22:23:22.737Z,14.7
2022-08-28T22:25:52.762Z,14.7
2022-08-28T22:28:22.782Z,14.6
2022-08-28T22:30:52.812Z,14.6
2022-08-28T22:33:22.838Z,14.7
2022-08-28T22:38:22.876Z,14.5
2022-08-28T22:40:52.931Z,14.4
2022-08-28T22:43:22.935Z,14.5
2022-08-28T22:45:52.983Z,14.5
2022-08-28T22:48:22.991Z,14.3
2022-08-28T22:50:53.006Z,14.3
2022-08-28T22:53:23.026Z,14.3
2022-08-28T22:58:23.077Z,14.2
2022-08-28T23:00:53.111Z,14.1
2022-08-28T23:03:23.233Z,14.2
2022-08-28T23:08:23.182Z,14.2
2022-08-28T23:10:59.304Z,14.2
2022-08-28T23:15:53.271Z,14.1
2022-08-28T23:18:23.254Z,14.1
2022-08-28T23:20:53.418Z,14
2022-08-28T23:23:23.327Z,14.1
2022-08-28T23:25:53.346Z,14
2022-08-28T23:28:23.358Z,13.9
2022-08-28T23:30:53.393Z,13.9
2022-08-28T23:33:24.151Z,13.8
2022-08-28T23:35:53.446Z,13.8
2022-08-28T23:38:23.445Z,13.7
2022-08-28T23:40:53.484Z,13.7
2022-08-28T23:43:23.507Z,13.8
2022-08-28T23:50:53.581Z,13.8
2022-08-28T23:53:23.589Z,13.6
2022-08-28T23:58:23.653Z,13.6
